createdAt,value
2022-08-17T00:00:43.368Z,22.90
2022-08-17T00:03:17.678Z,22.40
2022-08-17T00:05:52.680Z,20.60
2022-08-17T00:08:26.424Z,23.50
2022-08-17T00:10:55.148Z,21.70
2022-08-17T00:13:38.070Z,24.60
2022-08-17T00:16:22.521Z,26.60
2022-08-17T00:19:14.400Z,27.40
2022-08-17T00:22:14.767Z,24.90
2022-08-17T00:24:35.003Z,23.90
2022-08-17T00:27:03.382Z,26.10
2022-08-17T00:29:31.192Z,24.70
2022-08-17T00:31:58.946Z,31.00
2022-08-17T00:34:28.008Z,25.30
2022-08-17T00:36:55.840Z,26.50
2022-08-17T00:39:23.670Z,29.00
2022-08-17T00:41:51.502Z,30.00
2022-08-17T00:44:19.579Z,29.70
2022-08-17T00:46:48.127Z,26.90
2022-08-17T00:49:19.623Z,29.80
2022-08-17T00:52:04.494Z,27.60
2022-08-17T00:54:44.929Z,28.80
2022-08-17T00:57:19.715Z,28.40
2022-08-17T01:00:01.718Z,33.50
2022-08-17T01:02:42.163Z,28.50
2022-08-17T01:05:19.584Z,29.50
2022-08-17T01:07:52.942Z,29.70
2022-08-17T01:11:00.335Z,31.80
2022-08-17T01:13:27.214Z,34.70
2022-08-17T01:16:08.281Z,36.10
2022-08-17T01:18:37.750Z,37.30
2022-08-17T01:21:17.614Z,39.40
2022-08-17T01:23:45.421Z,47.00
2022-08-17T01:26:13.742Z,45.40
2022-08-17T01:28:53.912Z,50.90
2022-08-17T01:31:30.552Z,48.10
2022-08-17T01:34:02.560Z,52.00
2022-08-17T01:36:30.694Z,52.60
2022-08-17T01:39:00.138Z,59.40
2022-08-17T01:41:29.131Z,58.30
2022-08-17T01:44:04.156Z,59.30
2022-08-17T01:46:36.972Z,61.00
2022-08-17T01:49:11.754Z,60.20
2022-08-17T01:51:39.852Z,59.80
2022-08-17T01:54:13.946Z,56.90
2022-08-17T01:56:47.317Z,60.80
2022-08-17T01:59:18.295Z,60.10
2022-08-17T02:01:46.942Z,61.90
2022-08-17T02:04:16.184Z,63.60
2022-08-17T02:06:52.603Z,63.80
2022-08-17T02:09:29.563Z,66.40
2022-08-17T02:12:37.829Z,64.30
2022-08-17T02:14:52.067Z,69.30
2022-08-17T02:17:19.888Z,66.50
2022-08-17T02:19:47.662Z,69.60
2022-08-17T02:22:18.203Z,65.60
2022-08-17T02:25:00.188Z,65.90
2022-08-17T02:27:30.174Z,62.40
2022-08-17T02:29:58.132Z,62.40
2022-08-17T02:32:28.675Z,65.60
2022-08-17T02:34:57.992Z,63.50
2022-08-17T02:37:31.380Z,62.00
2022-08-17T02:40:00.004Z,62.40
2022-08-17T02:42:38.913Z,60.30
2022-08-17T02:45:22.876Z,64.80
2022-08-17T02:47:52.111Z,69.90
2022-08-17T02:50:24.042Z,62.40
2022-08-17T02:53:01.837Z,65.80
2022-08-17T02:55:40.321Z,67.10
2022-08-17T02:58:11.600Z,64.70
2022-08-17T03:03:20.385Z,68.20
2022-08-17T03:05:53.598Z,64.90
2022-08-17T03:08:22.435Z,68.50
2022-08-17T03:10:50.541Z,67.70
2022-08-17T03:13:18.872Z,64.00
2022-08-17T03:15:48.468Z,67.40
2022-08-17T03:18:24.735Z,59.30
2022-08-17T03:20:57.985Z,64.10
2022-08-17T03:23:29.641Z,64.50
2022-08-17T03:25:59.524Z,62.10
2022-08-17T03:28:28.279Z,61.10
2022-08-17T03:30:56.218Z,64.00
2022-08-17T03:33:24.103Z,61.40
2022-08-17T03:35:52.144Z,65.10
2022-08-17T03:38:20.005Z,65.00
2022-08-17T03:40:56.705Z,66.50
2022-08-17T03:43:31.038Z,63.90
2022-08-17T03:46:39.009Z,65.30
2022-08-17T03:49:27.279Z,64.90
2022-08-17T03:52:16.257Z,61.30
2022-08-17T03:55:03.947Z,60.70
2022-08-17T03:57:32.485Z,61.70
2022-08-17T04:00:00.398Z,67.80
2022-08-17T04:02:32.798Z,66.60
2022-08-17T04:05:01.043Z,64.00
2022-08-17T04:07:31.517Z,59.30
2022-08-17T04:10:00.534Z,59.30
2022-08-17T04:12:42.059Z,62.80
2022-08-17T04:15:11.773Z,62.80
2022-08-17T04:17:39.627Z,61.50
2022-08-17T04:20:08.415Z,61.30
2022-08-17T04:22:36.403Z,63.10
2022-08-17T04:25:16.386Z,59.00
2022-08-17T04:27:44.251Z,64.20
2022-08-17T04:30:13.436Z,70.10
2022-08-17T04:33:10.545Z,58.10
2022-08-17T04:36:01.279Z,68.40
2022-08-17T04:38:34.922Z,62.80
2022-08-17T04:41:22.649Z,65.40
2022-08-17T04:43:56.023Z,60.50
2022-08-17T04:46:29.353Z,64.80
2022-08-17T04:48:57.783Z,63.40
2022-08-17T04:51:34.587Z,60.60
2022-08-17T04:54:07.905Z,62.20
2022-08-17T04:56:36.136Z,63.30
2022-08-17T04:59:21.121Z,65.70
2022-08-17T05:01:52.091Z,60.70
2022-08-17T05:04:34.893Z,68.10
2022-08-17T05:07:04.606Z,63.70
2022-08-17T05:09:32.783Z,67.40
2022-08-17T05:12:02.528Z,66.20
2022-08-17T05:14:33.018Z,67.00
2022-08-17T05:17:07.408Z,63.70
2022-08-17T05:19:39.078Z,64.40
2022-08-17T05:22:07.022Z,67.80
2022-08-17T05:24:42.518Z,66.20
2022-08-17T05:27:18.826Z,65.60
2022-08-17T05:29:47.215Z,67.10
2022-08-17T05:32:38.000Z,68.50
2022-08-17T05:35:03.722Z,69.30
2022-08-17T05:37:31.507Z,72.90
2022-08-17T05:39:59.740Z,71.00
2022-08-17T05:42:27.545Z,74.80
2022-08-17T05:44:58.851Z,71.50
2022-08-17T05:47:27.613Z,70.60
2022-08-17T05:49:55.606Z,79.70
2022-08-17T05:53:00.988Z,76.30
2022-08-17T05:55:50.671Z,80.80
2022-08-17T05:58:46.586Z,77.50
2022-08-17T06:01:37.452Z,81.10
2022-08-17T06:04:31.010Z,85.10
2022-08-17T06:07:25.387Z,88.90
2022-08-17T06:10:02.020Z,85.10
2022-08-17T06:12:50.874Z,89.20
2022-08-17T06:15:56.246Z,93.20
2022-08-17T06:18:34.088Z,92.90
2022-08-17T06:21:07.532Z,90.70
2022-08-17T06:23:41.757Z,88.50
2022-08-17T06:26:37.321Z,87.70
2022-08-17T06:29:47.759Z,83.60
2022-08-17T06:32:17.171Z,84.80
2022-08-17T06:34:46.488Z,89.00
2022-08-17T06:37:26.768Z,82.20
2022-08-17T06:40:37.644Z,90.70
2022-08-17T06:43:23.366Z,88.60
2022-08-17T06:46:07.042Z,92.70
2022-08-17T06:48:46.972Z,86.90
2022-08-17T06:51:39.717Z,89.70
2022-08-17T06:54:29.543Z,87.40
2022-08-17T06:57:17.679Z,89.70
2022-08-17T06:59:56.748Z,90.00
2022-08-17T07:02:52.210Z,96.90
2022-08-17T07:06:02.967Z,94.70
2022-08-17T07:08:54.864Z,92.70
2022-08-17T07:12:03.463Z,95.90
2022-08-17T07:14:55.991Z,94.10
2022-08-17T07:17:47.203Z,97.60
2022-08-17T07:20:22.746Z,103.30
2022-08-17T07:23:09.072Z,103.60
2022-08-17T07:25:36.956Z,103.50
2022-08-17T07:28:07.777Z,105.60
2022-08-17T07:30:47.096Z,104.20
2022-08-17T07:33:24.583Z,112.80
2022-08-17T07:35:53.736Z,109.80
2022-08-17T07:38:28.662Z,115.10
2022-08-17T07:41:02.984Z,121.10
2022-08-17T07:43:40.237Z,119.30
2022-08-17T07:46:44.947Z,115.20
2022-08-17T07:49:12.707Z,116.00
2022-08-17T07:51:43.829Z,115.00
2022-08-17T07:57:29.397Z,119.50
2022-08-17T08:00:01.118Z,116.10
2022-08-17T08:02:38.670Z,113.60
2022-08-17T08:05:49.416Z,110.00
2022-08-17T08:08:42.747Z,114.20
2022-08-17T08:11:30.058Z,108.50
2022-08-17T08:14:28.274Z,104.30
2022-08-17T08:17:05.892Z,108.50
2022-08-17T08:19:34.575Z,108.80
2022-08-17T08:22:21.184Z,102.40
2022-08-17T08:25:21.547Z,98.90
2022-08-17T08:28:20.086Z,98.40
2022-08-17T08:30:58.543Z,89.20
2022-08-17T08:33:42.781Z,99.10
2022-08-17T08:37:14.606Z,92.10
2022-08-17T08:40:30.983Z,87.80
2022-08-17T08:43:39.004Z,87.00
2022-08-17T08:46:52.908Z,84.80
2022-08-17T08:50:02.841Z,81.00
2022-08-17T08:53:01.823Z,85.50
2022-08-17T08:58:43.585Z,88.80
2022-08-17T09:01:55.954Z,82.90
2022-08-17T09:05:16.084Z,80.40
2022-08-17T09:08:12.740Z,77.70
2022-08-17T09:11:12.604Z,73.50
2022-08-17T09:14:28.189Z,68.80
2022-08-17T09:17:07.834Z,67.30
2022-08-17T09:19:48.265Z,65.80
2022-08-17T09:23:52.056Z,69.90
2022-08-17T09:26:31.817Z,62.10
2022-08-17T09:29:07.410Z,62.50
2022-08-17T09:31:49.705Z,59.80
2022-08-17T09:34:33.448Z,60.40
2022-08-17T09:37:19.257Z,61.70
2022-08-17T09:40:11.932Z,58.50
2022-08-17T09:42:50.789Z,57.90
2022-08-17T09:45:45.238Z,53.50
2022-08-17T09:48:27.691Z,60.10
2022-08-17T09:51:16.610Z,56.30
2022-08-17T09:53:44.839Z,55.90
2022-08-17T09:57:05.716Z,47.30
2022-08-17T09:59:54.841Z,51.70
2022-08-17T10:02:40.504Z,48.00
2022-08-17T10:05:21.997Z,47.80
2022-08-17T10:08:16.980Z,45.40
2022-08-17T10:11:50.357Z,39.50
2022-08-17T10:14:43.819Z,38.40
2022-08-17T10:17:42.894Z,38.60
2022-08-17T10:20:39.465Z,34.90
2022-08-17T10:23:41.168Z,32.50
2022-08-17T10:26:16.966Z,29.20
2022-08-17T10:29:12.532Z,27.40
2022-08-17T10:31:48.569Z,28.80
2022-08-17T10:34:44.364Z,24.70
2022-08-17T10:37:21.066Z,27.50
2022-08-17T10:40:39.919Z,27.80
2022-08-17T10:43:25.507Z,28.40
2022-08-17T10:46:31.055Z,29.20
2022-08-17T10:49:21.141Z,28.60
2022-08-17T10:51:52.978Z,26.00
2022-08-17T10:55:05.987Z,27.20
2022-08-17T10:57:44.904Z,26.90
2022-08-17T11:00:25.627Z,24.90
2022-08-17T11:02:57.839Z,22.50
2022-08-17T11:05:58.899Z,23.70
2022-08-17T11:08:38.736Z,25.40
2022-08-17T11:11:56.376Z,25.80
2022-08-17T11:14:47.608Z,24.20
2022-08-17T11:17:44.200Z,24.30
2022-08-17T11:20:38.450Z,21.10
2022-08-17T11:23:38.467Z,21.30
2022-08-17T11:26:26.587Z,20.80
2022-08-17T11:29:05.195Z,19.50
2022-08-17T11:31:58.223Z,19.50
2022-08-17T11:34:30.251Z,18.20
2022-08-17T11:37:19.046Z,18.70
2022-08-17T11:40:20.220Z,18.00
2022-08-17T11:46:22.593Z,15.30
2022-08-17T11:49:11.695Z,17.00
2022-08-17T11:52:01.617Z,17.20
2022-08-17T11:54:37.447Z,14.50
2022-08-17T11:57:27.046Z,15.40
2022-08-17T12:00:06.490Z,18.60
2022-08-17T12:02:48.312Z,14.60
2022-08-17T12:05:26.031Z,16.80
2022-08-17T12:08:15.201Z,16.50
2022-08-17T12:11:04.739Z,18.50
2022-08-17T12:13:45.196Z,16.10
2022-08-17T12:16:20.126Z,15.30
2022-08-17T12:19:02.404Z,16.50
2022-08-17T12:21:51.275Z,12.60
2022-08-17T12:24:31.455Z,14.40
2022-08-17T12:27:04.450Z,14.10
2022-08-17T12:29:35.676Z,13.00
2022-08-17T12:32:16.573Z,14.80
2022-08-17T12:34:47.311Z,17.80
2022-08-17T12:37:31.072Z,14.40
2022-08-17T12:40:16.848Z,14.30
2022-08-17T12:42:57.602Z,15.40
2022-08-17T12:45:39.728Z,14.00
2022-08-17T12:48:21.529Z,11.80
2022-08-17T12:50:51.621Z,13.00
2022-08-17T12:53:29.832Z,12.00
2022-08-17T12:56:00.325Z,11.50
2022-08-17T12:58:37.764Z,12.20
2022-08-17T13:01:15.071Z,15.40
2022-08-17T13:03:49.459Z,15.70
2022-08-17T13:06:35.747Z,13.50
2022-08-17T13:09:35.743Z,12.80
2022-08-17T13:12:08.546Z,17.90
2022-08-17T13:14:36.447Z,13.80
2022-08-17T13:17:11.029Z,14.30
2022-08-17T13:19:50.476Z,13.80
2022-08-17T13:22:24.656Z,12.10
2022-08-17T13:24:58.187Z,13.90
2022-08-17T13:27:29.607Z,16.20
2022-08-17T13:30:03.970Z,13.50
2022-08-17T13:32:43.967Z,15.50
2022-08-17T13:35:32.801Z,9.80
2022-08-17T13:38:16.938Z,18.40
2022-08-17T13:40:50.932Z,11.30
2022-08-17T13:43:49.614Z,13.40
2022-08-17T13:46:28.531Z,12.70
2022-08-17T13:49:09.871Z,10.70
2022-08-17T13:51:47.529Z,13.80
2022-08-17T13:54:31.466Z,12.80
2022-08-17T13:57:19.576Z,13.40
2022-08-17T13:59:52.976Z,12.50
2022-08-17T14:02:21.825Z,13.20
2022-08-17T14:04:50.254Z,13.00
2022-08-17T14:07:26.529Z,10.70
2022-08-17T14:10:00.763Z,10.70
2022-08-17T14:12:33.138Z,15.90
2022-08-17T14:15:02.209Z,10.80
2022-08-17T14:17:36.356Z,12.00
2022-08-17T14:20:10.961Z,9.80
2022-08-17T14:22:44.772Z,10.30
2022-08-17T14:25:16.250Z,18.50
2022-08-17T14:27:53.426Z,14.70
2022-08-17T14:30:26.742Z,11.50
2022-08-17T14:32:58.522Z,13.30
2022-08-17T14:35:28.225Z,10.90
2022-08-17T14:37:56.677Z,11.80
2022-08-17T14:40:25.484Z,13.90
2022-08-17T14:42:55.979Z,11.30
2022-08-17T14:45:32.892Z,9.20
2022-08-17T14:48:04.490Z,8.80
2022-08-17T14:50:35.512Z,9.00
2022-08-17T14:53:06.011Z,8.60
2022-08-17T14:55:34.589Z,10.20
2022-08-17T14:58:04.000Z,11.40
2022-08-17T15:00:33.146Z,11.80
2022-08-17T15:03:02.398Z,13.10
2022-08-17T15:05:35.390Z,15.30
2022-08-17T15:08:05.561Z,12.40
2022-08-17T15:10:34.480Z,13.30
2022-08-17T15:13:02.539Z,10.60
2022-08-17T15:15:31.204Z,14.10
2022-08-17T15:17:59.827Z,14.00
2022-08-17T15:20:29.821Z,15.10
2022-08-17T15:22:59.326Z,12.50
2022-08-17T15:25:31.949Z,13.60
2022-08-17T15:28:01.370Z,11.50
2022-08-17T15:30:31.091Z,9.00
2022-08-17T15:33:01.168Z,10.50
2022-08-17T15:35:33.053Z,6.60
2022-08-17T15:38:11.139Z,8.50
2022-08-17T15:40:44.734Z,6.80
2022-08-17T15:43:27.253Z,6.60
2022-08-17T15:46:01.492Z,7.30
2022-08-17T15:48:41.300Z,6.10
2022-08-17T15:51:21.430Z,8.70
2022-08-17T15:54:00.022Z,7.20
2022-08-17T15:56:32.755Z,6.40
2022-08-17T15:59:01.159Z,4.50
2022-08-17T16:02:11.987Z,5.70
2022-08-17T16:04:30.233Z,6.80
2022-08-17T16:07:00.248Z,5.80
2022-08-17T16:09:28.515Z,6.60
2022-08-17T16:11:56.655Z,6.10
2022-08-17T16:14:32.540Z,7.50
2022-08-17T16:17:04.810Z,7.00
2022-08-17T16:19:52.595Z,6.80
2022-08-17T16:22:44.687Z,10.90
2022-08-17T16:25:21.779Z,7.70
2022-08-17T16:27:53.613Z,6.60
2022-08-17T16:30:25.471Z,9.10
2022-08-17T16:32:55.529Z,4.20
2022-08-17T16:35:26.812Z,4.70
2022-08-17T16:37:58.392Z,4.40
2022-08-17T16:40:29.643Z,4.10
2022-08-17T16:43:01.686Z,6.30
2022-08-17T16:45:36.581Z,5.90
2022-08-17T16:48:04.873Z,7.70
2022-08-17T16:50:33.822Z,5.40
2022-08-17T16:53:16.278Z,7.20
2022-08-17T16:55:46.073Z,7.50
2022-08-17T16:58:15.587Z,6.10
2022-08-17T17:00:45.239Z,8.10
2022-08-17T17:03:21.123Z,9.30
2022-08-17T17:06:08.729Z,7.50
2022-08-17T17:09:01.915Z,8.10
2022-08-17T17:11:54.619Z,13.20
2022-08-17T17:14:28.303Z,10.90
2022-08-17T17:17:05.336Z,12.60
2022-08-17T17:20:00.717Z,14.80
2022-08-17T17:22:48.671Z,12.00
2022-08-17T17:25:26.369Z,10.60
2022-08-17T17:28:02.948Z,11.60
2022-08-17T17:30:53.656Z,15.90
2022-08-17T17:33:36.203Z,11.90
2022-08-17T17:36:17.044Z,13.00
2022-08-17T17:38:52.833Z,10.60
2022-08-17T17:41:37.082Z,12.90
2022-08-17T17:44:18.015Z,12.80
2022-08-17T17:46:56.606Z,13.00
2022-08-17T17:49:33.280Z,12.00
2022-08-17T17:52:41.091Z,9.30
2022-08-17T17:55:33.651Z,13.10
2022-08-17T17:58:28.557Z,10.90
2022-08-17T18:01:53.835Z,9.80
2022-08-17T18:04:42.754Z,10.70
2022-08-17T18:07:16.130Z,11.30
2022-08-17T18:10:01.430Z,8.80
2022-08-17T18:12:46.349Z,13.80
2022-08-17T18:15:29.786Z,10.80
2022-08-17T18:18:16.031Z,11.80
2022-08-17T18:20:53.779Z,12.40
2022-08-17T18:23:28.055Z,12.30
2022-08-17T18:25:58.803Z,13.00
2022-08-17T18:28:39.794Z,12.30
2022-08-17T18:31:20.513Z,11.60
2022-08-17T18:33:53.364Z,11.30
2022-08-17T18:36:33.501Z,13.30
2022-08-17T18:39:10.284Z,17.50
2022-08-17T18:41:48.794Z,11.20
2022-08-17T18:44:25.368Z,11.70
2022-08-17T18:47:28.514Z,20.20
2022-08-17T18:50:27.381Z,14.70
2022-08-17T18:53:30.164Z,11.60
2022-08-17T18:56:27.918Z,10.90
2022-08-17T18:59:11.962Z,10.70
2022-08-17T19:02:16.059Z,12.50
2022-08-17T19:05:07.789Z,10.40
2022-08-17T19:07:44.262Z,10.80
2022-08-17T19:10:24.228Z,13.40
2022-08-17T19:13:00.741Z,14.60
2022-08-17T19:16:14.671Z,10.50
2022-08-17T19:19:19.990Z,13.70
2022-08-17T19:21:59.100Z,9.80
2022-08-17T19:24:30.663Z,11.70
2022-08-17T19:27:19.642Z,10.50
2022-08-17T19:30:07.913Z,16.60
2022-08-17T19:32:38.041Z,11.40
2022-08-17T19:35:13.596Z,11.70
2022-08-17T19:38:18.470Z,9.40
2022-08-17T19:41:12.121Z,9.30
2022-08-17T19:43:51.292Z,14.90
2022-08-17T19:47:00.848Z,10.50
2022-08-17T19:49:41.279Z,10.20
2022-08-17T19:52:18.538Z,13.10
2022-08-17T19:55:32.949Z,11.20
2022-08-17T19:58:21.418Z,12.20
2022-08-17T20:00:54.535Z,11.20
2022-08-17T20:03:34.809Z,16.80
2022-08-17T20:06:15.065Z,10.20
2022-08-17T20:09:05.973Z,16.50
2022-08-17T20:11:45.264Z,10.70
2022-08-17T20:14:35.938Z,11.30
2022-08-17T20:17:06.126Z,15.20
2022-08-17T20:19:53.254Z,10.60
2022-08-17T20:22:31.738Z,12.50
2022-08-17T20:25:33.303Z,13.70
2022-08-17T20:28:22.891Z,13.70
2022-08-17T20:30:52.567Z,16.70
2022-08-17T20:33:37.647Z,10.30
2022-08-17T20:36:11.290Z,12.20
2022-08-17T20:38:48.935Z,17.30
2022-08-17T20:41:24.817Z,17.30
2022-08-17T20:43:55.647Z,12.30
2022-08-17T20:46:51.597Z,11.10
2022-08-17T20:49:39.179Z,10.40
2022-08-17T20:52:16.608Z,10.50
2022-08-17T20:54:48.949Z,10.50
2022-08-17T20:57:32.190Z,17.30
2022-08-17T21:00:33.387Z,11.70
2022-08-17T21:03:26.952Z,11.60
2022-08-17T21:06:16.927Z,14.90
2022-08-17T21:08:53.939Z,11.30
2022-08-17T21:11:56.737Z,13.10
2022-08-17T21:14:34.367Z,11.80
2022-08-17T21:17:33.683Z,12.30
2022-08-17T21:20:11.459Z,21.50
2022-08-17T21:23:13.272Z,16.30
2022-08-17T21:25:55.046Z,13.70
2022-08-17T21:28:38.017Z,16.70
2022-08-17T21:32:03.919Z,12.50
2022-08-17T21:35:06.479Z,15.20
2022-08-17T21:37:46.389Z,15.10
2022-08-17T21:40:18.222Z,15.10
2022-08-17T21:42:53.831Z,13.80
2022-08-17T21:45:30.551Z,17.60
2022-08-17T21:48:17.401Z,18.50
2022-08-17T21:51:03.816Z,13.30
2022-08-17T21:53:50.093Z,14.00
2022-08-17T21:56:29.320Z,19.70
2022-08-17T21:59:28.126Z,18.80
2022-08-17T22:02:09.768Z,13.60
2022-08-17T22:04:44.043Z,16.80
2022-08-17T22:07:14.295Z,16.50
2022-08-17T22:09:49.752Z,15.80
2022-08-17T22:12:20.025Z,13.00
2022-08-17T22:15:00.582Z,20.70
2022-08-17T22:17:35.961Z,15.40
2022-08-17T22:20:15.839Z,21.80
2022-08-17T22:23:05.176Z,16.10
2022-08-17T22:25:38.252Z,21.20
2022-08-17T22:28:10.052Z,17.20
2022-08-17T22:30:59.263Z,14.90
2022-08-17T22:33:32.884Z,20.30
2022-08-17T22:36:33.698Z,21.80
2022-08-17T22:39:26.123Z,19.40
2022-08-17T22:41:59.749Z,17.30
2022-08-17T22:44:37.868Z,15.60
2022-08-17T22:47:14.530Z,20.10
2022-08-17T22:50:05.197Z,17.50
2022-08-17T22:53:01.088Z,19.80
2022-08-17T22:55:51.941Z,16.20
2022-08-17T22:58:43.378Z,20.10
2022-08-17T23:01:31.579Z,18.00
2022-08-17T23:04:06.949Z,18.00
2022-08-17T23:06:38.078Z,15.80
2022-08-17T23:11:49.900Z,14.20
2022-08-17T23:14:20.754Z,22.10
2022-08-17T23:16:52.866Z,16.20
2022-08-17T23:19:22.219Z,23.10
2022-08-17T23:21:52.699Z,18.30
2022-08-17T23:24:27.049Z,17.70
2022-08-17T23:26:57.416Z,15.70
2022-08-17T23:29:29.263Z,17.30
2022-08-17T23:32:00.134Z,18.50
2022-08-17T23:34:28.691Z,15.70
2022-08-17T23:36:56.623Z,20.10
2022-08-17T23:39:27.560Z,19.20
2022-08-17T23:42:05.158Z,17.40
2022-08-17T23:44:33.820Z,16.90
2022-08-17T23:47:04.668Z,19.20
2022-08-17T23:49:32.601Z,24.20
2022-08-17T23:52:04.428Z,14.60
2022-08-17T23:54:41.559Z,17.60
2022-08-17T23:57:20.376Z,19.20
